Time;durP1;ratioP1;P1;durP2;ratioP2;P2;SDS_P1;SDS_P2;PMS_P1;PMS_P2;Temp;Humidity;BMP_temperature;BMP_pressure;BME280_temperature;BME280_humidity;BME280_pressure;Samples;Min_cycle;Max_cycle;Signal;HPM_P1;HPM_P2
2023/04/05 00:01:48;;;;;;;2.15;1.95;;;19.20;47.90;;;;;;4972442;28;20211;-67
2023/04/05 00:04:19;;;;;;;3.10;2.80;;;19.20;47.90;;;;;;4991066;28;20187;-65
2023/04/05 00:06:51;;;;;;;3.17;2.60;;;19.20;47.90;;;;;;4978309;28;20211;-66
2023/04/05 00:09:19;;;;;;;3.80;2.47;;;19.20;47.90;;;;;;4980196;28;20190;-66
2023/04/05 00:11:46;;;;;;;2.60;2.40;;;19.20;47.90;;;;;;4983416;28;20336;-67
2023/04/05 00:14:12;;;;;;;3.78;2.65;;;19.20;47.90;;;;;;4994317;28;20196;-65
2023/04/05 00:16:37;;;;;;;2.58;2.30;;;19.20;47.80;;;;;;4978474;28;20188;-66
2023/04/05 00:19:04;;;;;;;3.00;2.42;;;19.20;47.80;;;;;;4994690;28;20192;-66
2023/04/05 00:21:32;;;;;;;3.08;2.63;;;19.20;47.80;;;;;;4988928;28;20249;-65
2023/04/05 00:23:58;;;;;;;3.33;2.58;;;19.20;47.90;;;;;;4989398;28;20177;-67
2023/04/05 00:26:25;;;;;;;2.50;2.25;;;19.20;47.80;;;;;;4980106;28;20180;-66
2023/04/05 00:28:55;;;;;;;2.58;2.38;;;19.20;47.80;;;;;;4995094;28;20244;-67
2023/04/05 00:31:21;;;;;;;2.60;2.40;;;19.20;47.80;;;;;;4978367;28;20208;-67
2023/04/05 00:33:47;;;;;;;2.75;2.40;;;19.10;47.80;;;;;;4994386;28;20242;-66
2023/04/05 00:36:19;;;;;;;2.65;2.20;;;19.10;47.80;;;;;;4994479;28;20181;-66
2023/04/05 00:38:46;;;;;;;2.40;2.20;;;19.20;47.80;;;;;;4978000;28;20185;-66
2023/04/05 00:41:13;;;;;;;2.97;2.10;;;19.10;47.70;;;;;;4985717;28;20228;-66
2023/04/05 00:43:39;;;;;;;2.88;2.60;;;19.10;47.80;;;;;;4987453;28;20201;-66
2023/04/05 00:46:06;;;;;;;2.42;2.15;;;19.20;47.90;;;;;;4984322;28;20186;-67
2023/04/05 00:48:34;;;;;;;2.67;2.35;;;19.10;47.80;;;;;;4971403;28;20645;-66
2023/04/05 00:51:00;;;;;;;2.85;2.65;;;19.10;47.80;;;;;;4989337;28;20209;-67
2023/04/05 00:53:27;;;;;;;2.33;2.15;;;19.10;47.80;;;;;;4977816;28;20185;-66
2023/04/05 00:55:53;;;;;;;2.05;1.88;;;19.10;47.80;;;;;;4993517;28;20199;-66
2023/04/05 00:58:21;;;;;;;2.55;2.20;;;19.10;48.30;;;;;;4962301;28;20181;-66
2023/04/05 01:01:05;;;;;;;3.05;2.15;;;19.10;47.80;;;;;;4967162;28;20276;-67
2023/04/05 01:03:34;;;;;;;2.28;2.08;;;19.10;47.80;;;;;;4976261;28;20228;-65
2023/04/05 01:06:27;;;;;;;1.67;1.58;;;19.10;47.70;;;;;;4991778;28;20182;-66
2023/04/05 01:09:28;;;;;;;2.67;2.25;;;19.10;47.70;;;;;;4958283;28;20186;-67
2023/04/05 01:12:00;;;;;;;2.25;2.05;;;19.10;47.70;;;;;;4962758;28;20296;-67
2023/04/05 01:14:25;;;;;;;2.53;2.30;;;19.10;47.70;;;;;;4982313;28;20632;-65
2023/04/05 01:16:56;;;;;;;2.20;2.00;;;19.10;47.70;;;;;;4965672;28;20228;-66
2023/04/05 01:19:27;;;;;;;2.30;2.10;;;19.10;47.70;;;;;;4970648;28;20187;-67
2023/04/05 01:22:28;;;;;;;1.98;1.67;;;19.10;47.70;;;;;;4963956;28;20254;-66
2023/04/05 01:25:19;;;;;;;2.60;2.40;;;19.10;47.60;;;;;;4978775;28;20675;-66
2023/04/05 01:27:58;;;;;;;2.22;2.03;;;19.10;47.60;;;;;;4993720;28;20185;-65
2023/04/05 01:30:36;;;;;;;2.30;2.10;;;19.10;47.60;;;;;;4966482;28;20205;-66
2023/04/05 01:33:33;;;;;;;2.50;2.28;;;19.10;47.60;;;;;;4973865;28;20180;-67
2023/04/05 01:36:31;;;;;;;2.35;1.75;;;19.10;47.60;;;;;;4968959;28;20185;-66
2023/04/05 01:39:03;;;;;;;2.35;2.15;;;19.10;47.60;;;;;;4966037;28;20197;-65
2023/04/05 01:41:29;;;;;;;2.22;1.77;;;19.10;47.60;;;;;;4988312;28;20253;-65
2023/04/05 01:43:55;;;;;;;2.03;1.90;;;19.10;47.60;;;;;;4957445;28;20189;-67
2023/04/05 01:46:21;;;;;;;2.15;2.03;;;19.10;47.60;;;;;;4976999;28;20242;-67
2023/04/05 01:48:47;;;;;;;2.83;1.90;;;19.10;47.50;;;;;;4976854;28;20712;-66
2023/04/05 01:51:13;;;;;;;2.53;2.00;;;19.10;47.50;;;;;;4984617;28;20291;-66
2023/04/05 01:53:39;;;;;;;2.00;1.80;;;19.10;47.60;;;;;;4962869;28;20224;-67
2023/04/05 01:56:06;;;;;;;1.80;1.70;;;19.10;47.60;;;;;;4971750;28;20198;-66
2023/04/05 01:58:33;;;;;;;3.05;2.45;;;19.10;47.60;;;;;;4962386;28;20209;-65
2023/04/05 02:00:59;;;;;;;2.92;2.03;;;19.10;47.60;;;;;;4992584;28;20225;-66
2023/04/05 02:03:25;;;;;;;2.35;1.83;;;19.10;47.60;;;;;;4976578;28;20180;-66
2023/04/05 02:05:51;;;;;;;2.38;2.17;;;19.10;47.60;;;;;;4976603;28;20188;-65
2023/04/05 02:08:17;;;;;;;2.30;2.05;;;19.10;47.50;;;;;;4981623;28;20181;-65
2023/04/05 02:10:44;;;;;;;2.75;2.05;;;19.20;47.60;;;;;;4986144;28;20311;-65
2023/04/05 02:13:10;;;;;;;2.03;1.85;;;19.10;47.50;;;;;;4967103;28;20559;-67
2023/04/05 02:15:36;;;;;;;2.22;2.13;;;19.10;47.50;;;;;;4968110;28;20181;-66
2023/04/05 02:18:02;;;;;;;2.20;2.00;;;19.10;47.40;;;;;;4984703;28;20204;-66
2023/04/05 02:20:28;;;;;;;2.15;1.95;;;19.10;47.40;;;;;;4992149;28;20683;-66
2023/04/05 02:22:55;;;;;;;2.83;2.28;;;19.10;47.50;;;;;;4984983;28;20202;-66
2023/04/05 02:25:21;;;;;;;3.95;2.00;;;19.10;47.50;;;;;;4968084;28;20211;-65
2023/04/05 02:27:48;;;;;;;2.15;1.98;;;19.10;47.50;;;;;;4976740;28;20188;-65
2023/04/05 02:30:14;;;;;;;2.28;1.75;;;19.10;47.50;;;;;;4966121;28;20628;-66
2023/04/05 02:32:41;;;;;;;1.88;1.73;;;19.10;47.40;;;;;;4970709;28;20243;-66
2023/04/05 02:35:09;;;;;;;2.20;1.95;;;19.10;47.50;;;;;;4983850;28;20192;-67
2023/04/05 02:37:35;;;;;;;2.25;1.92;;;19.10;47.40;;;;;;4973146;28;20232;-65
2023/04/05 02:40:04;;;;;;;2.30;2.10;;;19.10;47.40;;;;;;4983554;28;20264;-66
2023/04/05 02:42:30;;;;;;;2.13;2.00;;;19.10;47.40;;;;;;4972315;28;20217;-66
2023/04/05 02:44:56;;;;;;;1.65;1.55;;;19.10;47.40;;;;;;4981697;28;20236;-66
2023/04/05 02:47:22;;;;;;;2.70;2.45;;;19.10;47.40;;;;;;4975356;28;20219;-66
2023/04/05 02:49:53;;;;;;;1.95;1.85;;;19.10;47.40;;;;;;4968580;28;20567;-66
2023/04/05 02:52:21;;;;;;;2.63;2.08;;;19.10;47.40;;;;;;4980880;28;20240;-65
2023/04/05 02:54:48;;;;;;;1.80;1.70;;;19.10;47.50;;;;;;4987807;28;20267;-66
2023/04/05 02:57:17;;;;;;;2.40;2.20;;;19.10;47.40;;;;;;4973374;28;20672;-66
2023/04/05 02:59:51;;;;;;;1.83;1.73;;;19.10;47.40;;;;;;4972570;28;20656;-66
2023/04/05 03:02:20;;;;;;;2.40;2.05;;;19.10;47.40;;;;;;4964499;28;20240;-66
2023/04/05 03:04:46;;;;;;;1.88;1.73;;;19.10;47.40;;;;;;4969025;28;20186;-66
2023/04/05 03:07:17;;;;;;;2.30;2.10;;;19.10;47.40;;;;;;4980830;28;20284;-67
2023/04/05 03:09:46;;;;;;;2.47;2.13;;;19.10;47.40;;;;;;4983675;28;20181;-66
2023/04/05 03:12:13;;;;;;;3.17;1.98;;;19.10;47.40;;;;;;4958874;28;20225;-66
2023/04/05 03:14:41;;;;;;;2.50;2.22;;;19.10;47.40;;;;;;4991249;28;20196;-67
2023/04/05 03:17:10;;;;;;;2.83;2.40;;;19.10;47.40;;;;;;4967982;28;20185;-67
2023/04/05 03:19:40;;;;;;;2.47;2.25;;;19.10;47.40;;;;;;4983771;28;20176;-67
2023/04/05 03:22:20;;;;;;;2.58;2.28;;;19.10;47.40;;;;;;4968472;28;20224;-66
2023/04/05 03:24:46;;;;;;;2.63;2.40;;;19.10;47.40;;;;;;4975321;28;20184;-66
2023/04/05 03:27:15;;;;;;;2.60;2.40;;;19.10;47.40;;;;;;4957979;28;20186;-67
2023/04/05 03:30:19;;;;;;;2.55;2.35;;;19.10;47.40;;;;;;4981943;28;20196;-67
2023/04/05 03:32:52;;;;;;;2.75;2.55;;;19.10;47.40;;;;;;4968117;28;20181;-66
2023/04/05 03:35:38;;;;;;;3.13;2.60;;;19.10;47.40;;;;;;4984793;28;20208;-65
2023/04/05 03:38:07;;;;;;;2.72;2.13;;;19.10;47.30;;;;;;4990608;28;20184;-67
2023/04/05 03:40:35;;;;;;;2.85;2.63;;;19.10;47.40;;;;;;4960700;28;20210;-66
2023/04/05 03:43:01;;;;;;;3.20;2.88;;;19.10;47.40;;;;;;4977586;28;20189;-66
2023/04/05 03:45:28;;;;;;;2.58;2.38;;;19.10;47.20;;;;;;4974707;28;20656;-66
2023/04/05 03:47:54;;;;;;;3.00;2.70;;;19.10;47.30;;;;;;4968277;28;20212;-66
2023/04/05 03:50:21;;;;;;;3.00;2.70;;;19.10;47.30;;;;;;4982124;28;20192;-66
2023/04/05 03:52:46;;;;;;;2.70;2.50;;;19.10;47.40;;;;;;4960961;28;20182;-67
2023/04/05 03:55:15;;;;;;;3.47;2.85;;;19.10;47.30;;;;;;4988596;28;20277;-67
2023/04/05 03:57:42;;;;;;;3.60;3.10;;;19.10;47.40;;;;;;4985426;28;20644;-66
2023/04/05 04:00:22;;;;;;;3.65;3.00;;;19.10;47.30;;;;;;4968030;28;20210;-66
2023/04/05 04:03:03;;;;;;;3.25;2.92;;;19.10;47.30;;;;;;4968648;28;20268;-66
2023/04/05 04:05:30;;;;;;;3.30;3.00;;;19.10;47.30;;;;;;4983355;28;20185;-67
2023/04/05 04:07:56;;;;;;;2.92;2.55;;;19.10;47.20;;;;;;4991023;28;20183;-65
2023/04/05 04:10:22;;;;;;;3.55;3.10;;;19.10;47.20;;;;;;4988278;28;20184;-66
2023/04/05 04:12:51;;;;;;;3.00;2.45;;;19.10;47.20;;;;;;4971349;28;20178;-67
2023/04/05 04:15:21;;;;;;;3.65;2.85;;;19.10;47.20;;;;;;4972505;28;20622;-65
2023/04/05 04:18:00;;;;;;;3.40;2.92;;;19.10;47.20;;;;;;4982903;28;20188;-66
2023/04/05 04:20:38;;;;;;;3.25;2.95;;;19.10;47.10;;;;;;4949804;28;20264;-65
2023/04/05 04:23:20;;;;;;;3.90;2.67;;;19.10;47.30;;;;;;4990649;28;20272;-66
2023/04/05 04:25:55;;;;;;;3.42;3.13;;;19.10;47.20;;;;;;4976378;28;20228;-66
2023/04/05 04:28:49;;;;;;;4.47;2.67;;;19.10;47.20;;;;;;4963681;28;20181;-67
2023/04/05 04:31:24;;;;;;;4.10;2.97;;;19.10;47.20;;;;;;4990340;28;20592;-66
2023/04/05 04:34:20;;;;;;;3.38;3.08;;;19.10;47.10;;;;;;4922877;28;20207;-67
2023/04/05 04:37:06;;;;;;;3.17;2.83;;;19.10;47.20;;;;;;4990111;28;20189;-67
2023/04/05 04:39:53;;;;;;;3.80;3.50;;;19.10;47.10;;;;;;4951788;28;20194;-66
2023/04/05 04:42:37;;;;;;;3.03;2.83;;;19.10;47.20;;;;;;4956802;28;20244;-66
2023/04/05 04:45:18;;;;;;;3.72;3.30;;;19.10;47.10;;;;;;4979991;28;20204;-65
2023/04/05 04:47:56;;;;;;;3.75;3.38;;;19.10;47.10;;;;;;4983624;28;20539;-67
2023/04/05 04:50:39;;;;;;;3.85;3.45;;;19.10;47.10;;;;;;4990515;28;20280;-67
2023/04/05 04:53:05;;;;;;;4.65;3.90;;;19.10;47.10;;;;;;4985775;28;20201;-65
2023/04/05 04:55:32;;;;;;;3.33;3.03;;;19.10;47.10;;;;;;4974985;28;20177;-67
2023/04/05 04:57:58;;;;;;;4.10;3.70;;;19.10;47.00;;;;;;4982442;28;20193;-65
2023/04/05 05:00:25;;;;;;;3.50;3.20;;;19.10;47.10;;;;;;4984356;28;20213;-67
2023/04/05 05:02:52;;;;;;;3.50;3.20;;;19.10;47.20;;;;;;4985833;28;20688;-67
2023/04/05 05:05:21;;;;;;;3.67;3.38;;;19.10;47.10;;;;;;4959775;28;20192;-67
2023/04/05 05:07:48;;;;;;;3.55;3.25;;;19.10;47.10;;;;;;4962648;28;20680;-66
2023/04/05 05:10:17;;;;;;;3.63;3.22;;;19.10;47.00;;;;;;4964601;28;20182;-66
2023/04/05 05:12:44;;;;;;;3.60;3.20;;;19.10;47.00;;;;;;4977574;28;20279;-65
2023/04/05 05:15:12;;;;;;;3.40;3.10;;;19.10;47.00;;;;;;4985206;28;20221;-66
2023/04/05 05:17:38;;;;;;;3.50;3.20;;;19.10;47.00;;;;;;4986552;28;20569;-65
2023/04/05 05:20:09;;;;;;;3.97;3.38;;;19.10;47.00;;;;;;4958988;28;20193;-65
2023/04/05 05:22:38;;;;;;;3.35;3.05;;;19.10;47.00;;;;;;4977561;28;20204;-65
2023/04/05 05:25:05;;;;;;;3.38;2.80;;;19.10;47.10;;;;;;4985398;28;20200;-66
2023/04/05 05:27:32;;;;;;;3.45;3.15;;;19.10;47.00;;;;;;4973990;28;20244;-66
2023/04/05 05:29:59;;;;;;;4.78;3.30;;;19.10;47.00;;;;;;4982037;28;20641;-65
2023/04/05 05:32:24;;;;;;;3.42;3.13;;;19.10;46.90;;;;;;4991841;28;20220;-66
2023/04/05 05:34:50;;;;;;;3.50;3.20;;;19.10;47.00;;;;;;4987749;28;20193;-65
2023/04/05 05:37:17;;;;;;;3.63;3.30;;;19.10;47.00;;;;;;4979745;28;20197;-65
2023/04/05 05:39:45;;;;;;;3.25;2.97;;;19.00;46.90;;;;;;4982222;28;20545;-65
2023/04/05 05:42:11;;;;;;;2.90;2.67;;;19.00;46.90;;;;;;4970515;28;20257;-66
2023/04/05 05:44:37;;;;;;;3.08;2.80;;;19.00;46.90;;;;;;4973740;28;20209;-66
2023/04/05 05:47:03;;;;;;;3.20;2.90;;;19.10;47.00;;;;;;4973587;28;20181;-66
2023/04/05 05:49:30;;;;;;;3.78;2.97;;;19.10;47.00;;;;;;4981674;28;20643;-65
2023/04/05 05:51:56;;;;;;;3.05;2.80;;;19.10;47.00;;;;;;4981261;28;20240;-66
2023/04/05 05:54:22;;;;;;;3.10;2.80;;;19.00;46.90;;;;;;4975100;28;20196;-66
2023/04/05 05:56:48;;;;;;;2.80;2.60;;;19.10;47.00;;;;;;4984854;28;20177;-67
2023/04/05 05:59:14;;;;;;;3.70;2.67;;;19.00;46.90;;;;;;4968671;28;20224;-67
2023/04/05 06:01:45;;;;;;;3.08;2.78;;;19.10;47.00;;;;;;4981382;28;20221;-66
2023/04/05 06:04:12;;;;;;;3.15;2.90;;;19.00;46.90;;;;;;4980416;28;20200;-67
2023/04/05 06:06:39;;;;;;;3.40;3.10;;;19.10;47.50;;;;;;4968276;28;20185;-66
2023/04/05 06:09:05;;;;;;;3.25;2.60;;;19.10;47.00;;;;;;4967212;28;20650;-67
2023/04/05 06:11:31;;;;;;;2.80;2.60;;;19.10;47.00;;;;;;4966623;28;20223;-66
2023/04/05 06:13:57;;;;;;;3.15;2.95;;;19.00;46.90;;;;;;4967643;28;20193;-66
2023/04/05 06:16:23;;;;;;;2.60;2.40;;;19.10;47.00;;;;;;4966468;28;20191;-66
2023/04/05 06:18:48;;;;;;;3.08;2.83;;;19.10;47.00;;;;;;4982322;28;20251;-67
2023/04/05 06:21:15;;;;;;;2.95;2.47;;;19.10;47.00;;;;;;4980913;28;20213;-66
2023/04/05 06:23:41;;;;;;;3.80;2.60;;;19.10;47.00;;;;;;4984357;28;20231;-66
2023/04/05 06:26:08;;;;;;;2.80;2.60;;;19.10;47.00;;;;;;4974751;28;20220;-66
2023/04/05 06:28:34;;;;;;;2.95;2.70;;;19.10;47.00;;;;;;4968626;28;20253;-65
2023/04/05 06:30:59;;;;;;;3.00;2.70;;;19.10;46.90;;;;;;4975742;28;20218;-66
2023/04/05 06:33:25;;;;;;;2.88;2.60;;;19.20;47.00;;;;;;4964920;28;20284;-65
2023/04/05 06:35:51;;;;;;;2.60;2.40;;;19.20;46.90;;;;;;4963017;28;20224;-65
2023/04/05 06:38:17;;;;;;;2.72;2.40;;;19.20;46.90;;;;;;4972573;28;20193;-66
2023/04/05 06:40:43;;;;;;;2.65;2.45;;;19.20;46.80;;;;;;4956258;28;20256;-66
2023/04/05 06:43:12;;;;;;;3.22;2.67;;;19.20;46.80;;;;;;4979384;28;20184;-65
2023/04/05 06:45:37;;;;;;;3.60;2.83;;;19.30;46.90;;;;;;4972671;28;20194;-65
2023/04/05 06:48:03;;;;;;;3.10;2.85;;;19.30;46.80;;;;;;4953293;29;20233;-66
2023/04/05 06:50:30;;;;;;;2.90;2.63;;;19.30;46.80;;;;;;4971191;28;20197;-65
2023/04/05 06:52:55;;;;;;;2.78;2.58;;;19.30;46.70;;;;;;4972758;28;20182;-65
2023/04/05 06:55:21;;;;;;;3.15;2.90;;;19.40;46.80;;;;;;4972572;28;20205;-66
2023/04/05 06:57:47;;;;;;;3.13;2.72;;;19.40;46.70;;;;;;4972631;28;20268;-66
2023/04/05 07:00:16;;;;;;;2.90;2.63;;;19.40;46.70;;;;;;4970740;28;20206;-66
2023/04/05 07:02:42;;;;;;;2.85;2.40;;;19.40;46.60;;;;;;4972243;28;20211;-66
2023/04/05 07:05:09;;;;;;;2.58;2.38;;;19.40;46.60;;;;;;4973515;28;20196;-65
2023/04/05 07:07:40;;;;;;;2.83;2.45;;;19.50;46.70;;;;;;4971962;28;20181;-65
2023/04/05 07:10:06;;;;;;;2.88;2.63;;;19.50;46.60;;;;;;4976671;28;20193;-66
2023/04/05 07:12:32;;;;;;;3.08;2.78;;;19.50;46.60;;;;;;4971864;28;20261;-66
2023/04/05 07:14:59;;;;;;;2.95;2.45;;;19.50;46.60;;;;;;4972819;28;20194;-66
2023/04/05 07:17:25;;;;;;;3.22;2.78;;;19.50;46.50;;;;;;4972003;28;20189;-65
2023/04/05 07:19:51;;;;;;;2.83;2.63;;;19.50;46.50;;;;;;4968952;28;20193;-65
2023/04/05 07:22:16;;;;;;;4.53;2.78;;;19.60;46.60;;;;;;4966794;28;20222;-66
2023/04/05 07:24:45;;;;;;;3.22;2.92;;;19.60;46.60;;;;;;4956252;28;20209;-65
2023/04/05 07:27:11;;;;;;;2.83;2.28;;;19.60;46.60;;;;;;4968978;28;20222;-66
2023/04/05 07:29:41;;;;;;;3.00;2.65;;;19.60;46.60;;;;;;4972893;28;20575;-65
2023/04/05 07:32:07;;;;;;;3.72;3.17;;;19.60;46.60;;;;;;4968674;28;20218;-66
2023/04/05 07:34:34;;;;;;;2.97;2.45;;;19.70;46.60;;;;;;4970244;28;20273;-65
2023/04/05 07:37:00;;;;;;;2.78;2.58;;;19.70;46.50;;;;;;4955864;28;20236;-66
2023/04/05 07:39:26;;;;;;;2.92;2.55;;;19.70;46.40;;;;;;4954303;28;20194;-65
2023/04/05 07:41:52;;;;;;;2.78;2.40;;;19.70;46.30;;;;;;4971896;28;20270;-66
2023/04/05 07:44:17;;;;;;;2.72;2.20;;;19.70;46.30;;;;;;4955787;28;20190;-66
2023/04/05 07:46:44;;;;;;;2.88;2.58;;;19.70;46.30;;;;;;4971900;28;20233;-65
2023/04/05 07:49:10;;;;;;;2.80;2.60;;;19.70;46.20;;;;;;4952593;29;20209;-67
2023/04/05 07:51:37;;;;;;;2.60;2.40;;;19.80;46.30;;;;;;4954833;28;20214;-66
2023/04/05 07:54:04;;;;;;;2.50;2.30;;;19.80;46.40;;;;;;4972271;28;20204;-65
2023/04/05 07:56:31;;;;;;;3.03;2.42;;;19.80;46.30;;;;;;4970622;28;20222;-65
2023/04/05 07:58:57;;;;;;;2.40;2.20;;;19.80;46.30;;;;;;4956277;28;20196;-66
2023/04/05 08:01:26;;;;;;;3.00;2.20;;;19.90;46.40;;;;;;4971683;28;20697;-66
2023/04/05 08:03:56;;;;;;;2.40;2.20;;;19.90;46.80;;;;;;4971864;28;20182;-66
2023/04/05 08:06:23;;;;;;;4.03;2.70;;;19.80;46.50;;;;;;4972967;28;20220;-66
2023/04/05 08:08:49;;;;;;;4.85;3.10;;;19.90;46.40;;;;;;4952764;28;20277;-66
2023/04/05 08:11:15;;;;;;;2.65;2.45;;;19.90;46.40;;;;;;4952225;28;20206;-65
2023/04/05 08:13:41;;;;;;;3.92;3.10;;;19.90;46.40;;;;;;4987532;28;20722;-66
2023/04/05 08:16:08;;;;;;;3.28;2.60;;;19.90;46.40;;;;;;4971767;28;20217;-65
2023/04/05 08:18:34;;;;;;;2.58;2.38;;;19.90;46.40;;;;;;4955499;28;20284;-66
2023/04/05 08:21:00;;;;;;;3.00;2.33;;;19.90;46.40;;;;;;4976050;28;20233;-66
2023/04/05 08:23:26;;;;;;;3.17;2.42;;;19.90;46.40;;;;;;4978698;28;20190;-66
2023/04/05 08:25:53;;;;;;;2.80;2.60;;;20.00;46.50;;;;;;4959534;28;20198;-66
2023/04/05 08:28:19;;;;;;;3.30;2.45;;;20.00;46.50;;;;;;4996335;28;20208;-65
2023/04/05 08:30:45;;;;;;;2.88;2.42;;;20.00;46.50;;;;;;4986223;28;20215;-66
2023/04/05 08:33:12;;;;;;;2.72;2.53;;;20.00;46.40;;;;;;4976427;28;20250;-65
2023/04/05 08:35:38;;;;;;;2.97;2.47;;;20.00;46.40;;;;;;4974249;28;20190;-65
2023/04/05 08:38:07;;;;;;;3.08;2.40;;;20.00;46.40;;;;;;4971905;28;20191;-66
2023/04/05 08:40:45;;;;;;;2.97;2.50;;;20.00;46.40;;;;;;4973233;28;20186;-65
2023/04/05 08:43:53;;;;;;;2.60;2.40;;;20.00;46.40;;;;;;4980277;28;20198;-65
2023/04/05 08:46:21;;;;;;;3.58;2.47;;;20.00;46.40;;;;;;4980818;28;20229;-68
2023/04/05 08:48:46;;;;;;;2.85;2.50;;;20.00;46.40;;;;;;4975041;28;20189;-66
2023/04/05 08:51:12;;;;;;;2.75;2.20;;;20.00;46.40;;;;;;4971563;28;20210;-66
2023/04/05 08:53:38;;;;;;;3.17;2.40;;;20.00;46.40;;;;;;4973966;28;20197;-66
2023/04/05 08:56:06;;;;;;;2.63;2.20;;;20.00;46.40;;;;;;4955800;29;20183;-66
2023/04/05 08:58:36;;;;;;;2.80;2.60;;;20.00;46.40;;;;;;4956164;28;20189;-66
2023/04/05 09:01:05;;;;;;;2.65;2.08;;;20.00;46.30;;;;;;4973872;28;20217;-66
2023/04/05 09:03:36;;;;;;;3.05;2.30;;;20.10;46.50;;;;;;4956764;28;20329;-66
2023/04/05 09:06:08;;;;;;;2.40;2.05;;;20.00;46.40;;;;;;4973761;28;20194;-66
2023/04/05 09:08:33;;;;;;;2.58;2.05;;;20.10;46.40;;;;;;4973014;28;20280;-66
2023/04/05 09:10:59;;;;;;;2.22;2.08;;;20.10;46.40;;;;;;4966019;28;20251;-67
2023/04/05 09:13:25;;;;;;;2.78;2.05;;;20.10;46.40;;;;;;4955388;28;20187;-66
2023/04/05 09:15:51;;;;;;;3.03;2.35;;;20.10;46.50;;;;;;4981575;28;20186;-66
2023/04/05 09:18:17;;;;;;;3.03;2.20;;;20.10;46.40;;;;;;4975580;28;20209;-66
2023/04/05 09:20:43;;;;;;;2.90;2.13;;;20.10;46.40;;;;;;4973804;28;20571;-67
2023/04/05 09:23:09;;;;;;;3.03;2.13;;;20.00;46.30;;;;;;4979257;28;20217;-67
2023/04/05 09:25:38;;;;;;;2.45;2.20;;;20.10;46.30;;;;;;4974221;28;20194;-67
2023/04/05 09:28:06;;;;;;;3.38;2.53;;;20.10;46.30;;;;;;4979580;28;20188;-66
2023/04/05 09:30:34;;;;;;;4.32;2.60;;;20.00;46.30;;;;;;4957675;28;20174;-65
2023/04/05 09:33:02;;;;;;;2.83;2.42;;;20.00;46.30;;;;;;4957662;28;20712;-67
2023/04/05 09:35:30;;;;;;;3.75;2.10;;;20.10;46.90;;;;;;4981874;28;20189;-67
2023/04/05 09:38:06;;;;;;;2.88;2.60;;;20.00;46.20;;;;;;4954813;28;20182;-66
2023/04/05 09:40:47;;;;;;;2.65;2.30;;;20.00;46.20;;;;;;4954510;28;20218;-65
2023/04/05 09:43:39;;;;;;;2.60;2.33;;;20.00;46.20;;;;;;4990550;28;20186;-66
2023/04/05 09:46:05;;;;;;;2.92;2.33;;;20.10;46.30;;;;;;4989191;28;20189;-66
2023/04/05 09:48:47;;;;;;;4.60;2.40;;;20.00;46.20;;;;;;4982144;28;20648;-67
2023/04/05 09:51:15;;;;;;;2.85;2.17;;;20.00;46.80;;;;;;4979407;28;20217;-66
2023/04/05 09:54:08;;;;;;;2.83;2.17;;;20.00;46.20;;;;;;4981033;28;20213;-67
2023/04/05 09:56:38;;;;;;;3.67;1.95;;;20.00;46.20;;;;;;4957455;28;20201;-66
2023/04/05 09:59:11;;;;;;;3.92;2.75;;;20.00;46.10;;;;;;4965481;28;20182;-67
2023/04/05 10:01:42;;;;;;;2.95;2.70;;;20.00;46.20;;;;;;4979692;28;20218;-66
2023/04/05 10:04:08;;;;;;;2.53;2.30;;;20.00;46.20;;;;;;4979819;28;20246;-67
2023/04/05 10:06:39;;;;;;;4.00;2.25;;;20.00;46.10;;;;;;4959847;28;20665;-67
2023/04/05 10:09:08;;;;;;;3.97;2.30;;;20.00;46.20;;;;;;4986988;28;20189;-66
2023/04/05 10:11:36;;;;;;;2.60;2.28;;;20.00;46.00;;;;;;4985267;28;20256;-67
2023/04/05 10:14:05;;;;;;;2.75;2.38;;;20.00;46.00;;;;;;4979532;28;20193;-67
2023/04/05 10:16:58;;;;;;;3.38;2.35;;;20.00;46.00;;;;;;4957043;28;20189;-67
2023/04/05 10:19:43;;;;;;;4.30;2.50;;;20.00;46.00;;;;;;4982499;28;20189;-66
2023/04/05 10:22:21;;;;;;;3.17;2.30;;;20.00;46.10;;;;;;4967704;28;20217;-67
2023/04/05 10:25:04;;;;;;;2.42;2.08;;;20.00;46.00;;;;;;4981081;28;20191;-67
2023/04/05 10:27:38;;;;;;;2.42;2.20;;;20.00;46.00;;;;;;4965481;28;20201;-67
2023/04/05 10:30:08;;;;;;;3.00;2.13;;;20.00;45.90;;;;;;4979596;28;20203;-66
2023/04/05 10:33:02;;;;;;;2.65;2.20;;;20.00;46.00;;;;;;4980953;28;20735;-66
2023/04/05 10:35:48;;;;;;;3.10;2.50;;;20.00;46.00;;;;;;4985155;28;20291;-67
2023/04/05 10:38:28;;;;;;;3.88;2.78;;;20.00;46.00;;;;;;4985901;28;20192;-66
2023/04/05 10:41:11;;;;;;;2.85;2.38;;;20.00;46.20;;;;;;4976642;28;20212;-66
2023/04/05 10:43:40;;;;;;;2.75;2.40;;;20.00;46.10;;;;;;4982643;28;20189;-67
2023/04/05 10:46:07;;;;;;;2.95;2.35;;;20.00;46.00;;;;;;4989031;28;20204;-67
2023/04/05 10:48:45;;;;;;;2.90;2.50;;;20.00;46.60;;;;;;4963218;28;20578;-66
2023/04/05 10:51:13;;;;;;;3.83;2.60;;;20.00;46.00;;;;;;4969238;28;20273;-66
2023/04/05 10:53:40;;;;;;;3.60;2.40;;;20.00;46.00;;;;;;4953516;28;20197;-66
2023/04/05 10:56:07;;;;;;;2.58;2.38;;;20.00;46.20;;;;;;4961682;28;20204;-66
2023/04/05 10:58:35;;;;;;;2.58;2.38;;;20.00;46.20;;;;;;4956616;28;20278;-67
2023/04/05 11:01:03;;;;;;;2.70;2.50;;;20.00;46.10;;;;;;4972235;28;20201;-66
2023/04/05 11:03:45;;;;;;;3.05;2.28;;;20.00;46.00;;;;;;4956290;28;20189;-66
2023/04/05 11:06:30;;;;;;;2.97;2.13;;;20.00;46.10;;;;;;4980702;28;20197;-66
2023/04/05 11:09:10;;;;;;;2.95;2.67;;;20.00;46.10;;;;;;4972533;28;20209;-67
2023/04/05 11:11:41;;;;;;;5.63;2.80;;;20.10;46.80;;;;;;4972927;28;20264;-68
2023/04/05 11:14:35;;;;;;;3.63;3.10;;;20.10;46.60;;;;;;4972191;28;20221;-67
2023/04/05 11:17:02;;;;;;;4.07;2.75;;;20.00;46.50;;;;;;4966232;28;20194;-68
2023/04/05 11:19:43;;;;;;;3.30;2.80;;;20.00;46.50;;;;;;4981284;28;20231;-66
2023/04/05 11:22:09;;;;;;;3.47;2.50;;;20.10;46.60;;;;;;4955849;28;20221;-67
2023/04/05 11:25:01;;;;;;;3.10;2.17;;;20.00;46.50;;;;;;4953582;28;20241;-67
2023/04/05 11:27:33;;;;;;;2.50;2.30;;;20.00;46.50;;;;;;4953134;28;20195;-67
2023/04/05 11:30:01;;;;;;;3.42;2.35;;;20.00;46.30;;;;;;4948290;28;20181;-67
2023/04/05 11:32:44;;;;;;;2.85;2.63;;;20.00;46.50;;;;;;4963644;28;20685;-66
2023/04/05 11:35:23;;;;;;;3.28;2.60;;;20.00;46.50;;;;;;4966010;28;20216;-68
2023/04/05 11:38:07;;;;;;;2.50;2.30;;;20.00;46.40;;;;;;4979754;28;20197;-68
2023/04/05 11:40:36;;;;;;;2.92;2.67;;;20.00;46.30;;;;;;4971658;28;20186;-68
2023/04/05 11:43:06;;;;;;;4.13;2.63;;;20.00;46.40;;;;;;4973239;28;20201;-67
2023/04/05 11:45:34;;;;;;;3.65;2.65;;;20.00;46.50;;;;;;4971702;28;20190;-67
2023/04/05 11:48:07;;;;;;;2.75;2.10;;;20.00;46.40;;;;;;4955921;28;20170;-68
2023/04/05 11:50:34;;;;;;;3.35;2.17;;;20.00;46.30;;;;;;4952792;28;20282;-67
2023/04/05 11:53:17;;;;;;;3.20;2.28;;;20.00;46.20;;;;;;4968591;28;20658;-67
2023/04/05 11:55:46;;;;;;;2.60;2.40;;;20.00;46.30;;;;;;4971390;28;20199;-67
2023/04/05 11:58:16;;;;;;;3.50;2.92;;;20.00;46.20;;;;;;4977636;28;20193;-67
2023/04/05 12:00:44;;;;;;;3.55;2.70;;;20.00;46.30;;;;;;4972681;28;20224;-68
2023/04/05 12:03:15;;;;;;;2.95;2.38;;;20.00;46.20;;;;;;4975777;28;20295;-68
2023/04/05 12:05:48;;;;;;;2.75;2.30;;;20.00;46.20;;;;;;4958815;28;20646;-68
2023/04/05 12:08:14;;;;;;;2.47;2.25;;;20.00;46.20;;;;;;4970726;28;20193;-68
2023/04/05 12:10:40;;;;;;;2.35;2.10;;;20.00;46.40;;;;;;4986525;28;20213;-68
2023/04/05 12:13:05;;;;;;;2.53;2.13;;;20.00;46.20;;;;;;4959434;28;20197;-67
2023/04/05 12:15:37;;;;;;;2.95;2.75;;;20.00;46.20;;;;;;4975914;28;20216;-68
2023/04/05 12:18:03;;;;;;;2.78;2.50;;;20.00;46.20;;;;;;4963476;28;20217;-68
2023/04/05 12:20:29;;;;;;;2.80;2.33;;;20.00;46.30;;;;;;4979973;28;20259;-67
2023/04/05 12:22:56;;;;;;;4.03;2.40;;;20.00;46.30;;;;;;4983239;28;20225;-67
2023/04/05 12:25:22;;;;;;;2.25;1.98;;;20.00;46.30;;;;;;4975427;28;20714;-66
2023/04/05 12:27:48;;;;;;;2.72;2.53;;;20.00;46.30;;;;;;4977165;28;20182;-67
2023/04/05 12:30:22;;;;;;;3.45;2.35;;;20.00;46.40;;;;;;4986146;28;20192;-67
2023/04/05 12:32:56;;;;;;;3.35;2.45;;;20.00;46.20;;;;;;4977505;28;20193;-67
2023/04/05 12:35:31;;;;;;;3.65;2.63;;;20.00;46.30;;;;;;4975530;28;20189;-67
2023/04/05 12:38:00;;;;;;;2.60;2.40;;;20.00;46.20;;;;;;4963659;28;20186;-67
2023/04/05 12:40:29;;;;;;;2.65;2.17;;;20.00;46.40;;;;;;4977758;28;20185;-67
2023/04/05 12:43:06;;;;;;;2.88;2.33;;;20.00;46.30;;;;;;4961540;28;20213;-67
2023/04/05 12:45:38;;;;;;;4.03;2.55;;;20.00;46.40;;;;;;4975559;28;20198;-67
2023/04/05 12:48:09;;;;;;;2.58;2.30;;;20.00;46.40;;;;;;4995351;28;20193;-67
2023/04/05 12:50:43;;;;;;;4.40;2.30;;;20.00;46.40;;;;;;4998815;28;20228;-67
2023/04/05 12:53:19;;;;;;;3.17;2.50;;;20.00;46.40;;;;;;4982706;28;20303;-68
2023/04/05 12:55:57;;;;;;;3.17;2.00;;;20.00;46.40;;;;;;4966564;28;20227;-67
2023/04/05 12:58:34;;;;;;;2.95;2.20;;;20.00;46.30;;;;;;4975847;28;20193;-67
2023/04/05 13:01:00;;;;;;;2.50;2.30;;;20.00;46.30;;;;;;4961693;28;20216;-67
2023/04/05 13:03:27;;;;;;;4.38;2.75;;;20.00;46.30;;;;;;4986095;28;20184;-67
2023/04/05 13:05:52;;;;;;;2.75;2.45;;;20.00;46.40;;;;;;4983539;28;20215;-68